sensor_id;sensor_type;location;lat;lon;timestamp;P1;durP1;ratioP1;P2;durP2;ratioP2
69240;SDS011;56352;55.750;13.198;2023-08-12T00:01:14;3.08;;;2.38;;
69240;SDS011;56352;55.750;13.198;2023-08-12T00:03:41;5.45;;;2.42;;
69240;SDS011;56352;55.750;13.198;2023-08-12T00:06:08;4.03;;;2.25;;
69240;SDS011;56352;55.750;13.198;2023-08-12T00:08:38;2.97;;;2.30;;
69240;SDS011;56352;55.750;13.198;2023-08-12T00:11:08;4.05;;;2.30;;
69240;SDS011;56352;55.750;13.198;2023-08-12T00:13:34;7.38;;;2.60;;
69240;SDS011;56352;55.750;13.198;2023-08-12T00:16:01;2.83;;;2.15;;
69240;SDS011;56352;55.750;13.198;2023-08-12T00:18:28;5.10;;;2.05;;
69240;SDS011;56352;55.750;13.198;2023-08-12T00:21:08;3.20;;;2.55;;
69240;SDS011;56352;55.750;13.198;2023-08-12T00:23:40;4.53;;;2.50;;
69240;SDS011;56352;55.750;13.198;2023-08-12T00:26:10;6.22;;;2.40;;
69240;SDS011;56352;55.750;13.198;2023-08-12T00:28:37;4.43;;;2.00;;
69240;SDS011;56352;55.750;13.198;2023-08-12T00:31:03;5.28;;;2.20;;
69240;SDS011;56352;55.750;13.198;2023-08-12T00:33:30;4.18;;;2.20;;
69240;SDS011;56352;55.750;13.198;2023-08-12T00:36:00;4.88;;;2.42;;
69240;SDS011;56352;55.750;13.198;2023-08-12T00:38:27;3.47;;;2.05;;
69240;SDS011;56352;55.750;13.198;2023-08-12T00:40:54;3.60;;;2.13;;
69240;SDS011;56352;55.750;13.198;2023-08-12T00:43:21;2.78;;;1.95;;
69240;SDS011;56352;55.750;13.198;2023-08-12T00:45:48;2.45;;;2.15;;
69240;SDS011;56352;55.750;13.198;2023-08-12T00:48:18;3.67;;;2.10;;
69240;SDS011;56352;55.750;13.198;2023-08-12T00:50:49;3.10;;;2.22;;
69240;SDS011;56352;55.750;13.198;2023-08-12T00:53:22;3.22;;;2.03;;
69240;SDS011;56352;55.750;13.198;2023-08-12T00:55:52;4.72;;;1.90;;
69240;SDS011;56352;55.750;13.198;2023-08-12T00:58:19;4.03;;;1.90;;
69240;SDS011;56352;55.750;13.198;2023-08-12T01:00:45;2.35;;;1.70;;
69240;SDS011;56352;55.750;13.198;2023-08-12T01:03:12;4.10;;;1.85;;
69240;SDS011;56352;55.750;13.198;2023-08-12T01:05:40;2.95;;;2.00;;
69240;SDS011;56352;55.750;13.198;2023-08-12T01:08:06;3.30;;;1.77;;
69240;SDS011;56352;55.750;13.198;2023-08-12T01:10:34;2.10;;;1.60;;
69240;SDS011;56352;55.750;13.198;2023-08-12T01:16:11;3.33;;;1.70;;
69240;SDS011;56352;55.750;13.198;2023-08-12T01:18:40;2.85;;;1.60;;
69240;SDS011;56352;55.750;13.198;2023-08-12T01:21:10;2.38;;;1.77;;
69240;SDS011;56352;55.750;13.198;2023-08-12T01:23:39;3.92;;;1.88;;
69240;SDS011;56352;55.750;13.198;2023-08-12T01:26:05;2.97;;;1.73;;
69240;SDS011;56352;55.750;13.198;2023-08-12T01:28:32;2.28;;;1.75;;
69240;SDS011;56352;55.750;13.198;2023-08-12T01:33:55;2.03;;;1.60;;
69240;SDS011;56352;55.750;13.198;2023-08-12T01:36:27;3.03;;;1.63;;
69240;SDS011;56352;55.750;13.198;2023-08-12T01:38:57;3.47;;;1.70;;
69240;SDS011;56352;55.750;13.198;2023-08-12T01:41:29;4.10;;;1.45;;
69240;SDS011;56352;55.750;13.198;2023-08-12T01:43:56;4.00;;;1.60;;
69240;SDS011;56352;55.750;13.198;2023-08-12T01:46:23;2.38;;;1.52;;
69240;SDS011;56352;55.750;13.198;2023-08-12T01:48:50;4.47;;;1.85;;
69240;SDS011;56352;55.750;13.198;2023-08-12T01:51:17;3.08;;;1.70;;
69240;SDS011;56352;55.750;13.198;2023-08-12T01:53:44;5.68;;;1.70;;
69240;SDS011;56352;55.750;13.198;2023-08-12T01:56:11;2.63;;;1.45;;
69240;SDS011;56352;55.750;13.198;2023-08-12T01:58:37;2.17;;;1.67;;
69240;SDS011;56352;55.750;13.198;2023-08-12T02:01:04;2.92;;;1.67;;
69240;SDS011;56352;55.750;13.198;2023-08-12T02:03:33;2.55;;;1.40;;
69240;SDS011;56352;55.750;13.198;2023-08-12T02:06:00;4.65;;;1.73;;
69240;SDS011;56352;55.750;13.198;2023-08-12T02:08:27;1.75;;;1.45;;
69240;SDS011;56352;55.750;13.198;2023-08-12T02:10:54;4.65;;;1.60;;
69240;SDS011;56352;55.750;13.198;2023-08-12T02:13:20;11.43;;;2.03;;
69240;SDS011;56352;55.750;13.198;2023-08-12T02:15:47;2.25;;;1.50;;
69240;SDS011;56352;55.750;13.198;2023-08-12T02:18:14;1.42;;;1.23;;
69240;SDS011;56352;55.750;13.198;2023-08-12T02:20:41;3.58;;;1.40;;
69240;SDS011;56352;55.750;13.198;2023-08-12T02:23:07;2.63;;;1.30;;
69240;SDS011;56352;55.750;13.198;2023-08-12T02:25:34;2.05;;;1.50;;
69240;SDS011;56352;55.750;13.198;2023-08-12T02:28:02;1.77;;;1.50;;
69240;SDS011;56352;55.750;13.198;2023-08-12T02:30:29;3.22;;;1.33;;
69240;SDS011;56352;55.750;13.198;2023-08-12T02:32:55;2.67;;;1.30;;
69240;SDS011;56352;55.750;13.198;2023-08-12T02:35:22;2.08;;;1.50;;
69240;SDS011;56352;55.750;13.198;2023-08-12T02:37:49;2.83;;;1.88;;
69240;SDS011;56352;55.750;13.198;2023-08-12T02:40:16;4.30;;;1.50;;
69240;SDS011;56352;55.750;13.198;2023-08-12T02:42:43;2.50;;;1.42;;
69240;SDS011;56352;55.750;13.198;2023-08-12T02:45:09;3.55;;;1.50;;
69240;SDS011;56352;55.750;13.198;2023-08-12T02:47:36;3.72;;;1.40;;
69240;SDS011;56352;55.750;13.198;2023-08-12T02:50:03;2.22;;;1.98;;
69240;SDS011;56352;55.750;13.198;2023-08-12T02:52:33;5.55;;;1.80;;
69240;SDS011;56352;55.750;13.198;2023-08-12T02:55:00;2.25;;;1.67;;
69240;SDS011;56352;55.750;13.198;2023-08-12T02:57:27;2.97;;;1.60;;
69240;SDS011;56352;55.750;13.198;2023-08-12T02:59:55;3.58;;;1.80;;
69240;SDS011;56352;55.750;13.198;2023-08-12T03:02:22;4.93;;;1.63;;
69240;SDS011;56352;55.750;13.198;2023-08-12T03:04:51;2.45;;;1.40;;
69240;SDS011;56352;55.750;13.198;2023-08-12T03:07:20;2.30;;;1.38;;
69240;SDS011;56352;55.750;13.198;2023-08-12T03:09:47;2.25;;;1.50;;
69240;SDS011;56352;55.750;13.198;2023-08-12T03:12:14;3.58;;;1.35;;
69240;SDS011;56352;55.750;13.198;2023-08-12T03:14:40;1.65;;;1.40;;
69240;SDS011;56352;55.750;13.198;2023-08-12T03:17:07;3.00;;;1.60;;
69240;SDS011;56352;55.750;13.198;2023-08-12T03:19:35;2.33;;;1.35;;
69240;SDS011;56352;55.750;13.198;2023-08-12T03:22:02;3.97;;;1.23;;
69240;SDS011;56352;55.750;13.198;2023-08-12T03:24:31;2.88;;;1.80;;
69240;SDS011;56352;55.750;13.198;2023-08-12T03:26:58;3.58;;;1.40;;
69240;SDS011;56352;55.750;13.198;2023-08-12T03:29:25;3.50;;;1.70;;
69240;SDS011;56352;55.750;13.198;2023-08-12T03:31:54;2.92;;;1.15;;
69240;SDS011;56352;55.750;13.198;2023-08-12T03:34:24;2.05;;;1.17;;
69240;SDS011;56352;55.750;13.198;2023-08-12T03:36:50;2.30;;;1.25;;
69240;SDS011;56352;55.750;13.198;2023-08-12T03:39:17;1.80;;;1.33;;
69240;SDS011;56352;55.750;13.198;2023-08-12T03:41:44;2.83;;;1.35;;
69240;SDS011;56352;55.750;13.198;2023-08-12T03:44:11;1.40;;;1.10;;
69240;SDS011;56352;55.750;13.198;2023-08-12T03:46:37;1.52;;;1.10;;
69240;SDS011;56352;55.750;13.198;2023-08-12T03:49:07;2.08;;;1.17;;
69240;SDS011;56352;55.750;13.198;2023-08-12T03:51:34;2.78;;;1.02;;
69240;SDS011;56352;55.750;13.198;2023-08-12T03:54:01;1.83;;;1.10;;
69240;SDS011;56352;55.750;13.198;2023-08-12T03:56:30;2.50;;;1.02;;
69240;SDS011;56352;55.750;13.198;2023-08-12T03:58:57;1.83;;;1.20;;
69240;SDS011;56352;55.750;13.198;2023-08-12T04:01:24;2.40;;;1.10;;
69240;SDS011;56352;55.750;13.198;2023-08-12T04:03:54;1.08;;;0.98;;
69240;SDS011;56352;55.750;13.198;2023-08-12T04:06:21;2.08;;;1.20;;
69240;SDS011;56352;55.750;13.198;2023-08-12T04:08:47;2.25;;;1.17;;
69240;SDS011;56352;55.750;13.198;2023-08-12T04:11:14;1.40;;;1.00;;
69240;SDS011;56352;55.750;13.198;2023-08-12T04:13:41;2.33;;;1.02;;
69240;SDS011;56352;55.750;13.198;2023-08-12T04:16:08;1.95;;;1.05;;
69240;SDS011;56352;55.750;13.198;2023-08-12T04:18:34;0.98;;;0.77;;
69240;SDS011;56352;55.750;13.198;2023-08-12T04:21:01;1.40;;;1.10;;
69240;SDS011;56352;55.750;13.198;2023-08-12T04:23:28;1.15;;;0.85;;
69240;SDS011;56352;55.750;13.198;2023-08-12T04:25:54;1.33;;;1.00;;
69240;SDS011;56352;55.750;13.198;2023-08-12T04:28:24;1.88;;;0.80;;
69240;SDS011;56352;55.750;13.198;2023-08-12T04:30:54;1.33;;;0.85;;
69240;SDS011;56352;55.750;13.198;2023-08-12T04:33:22;1.70;;;1.00;;
69240;SDS011;56352;55.750;13.198;2023-08-12T04:35:52;2.22;;;0.90;;
69240;SDS011;56352;55.750;13.198;2023-08-12T04:38:19;1.35;;;0.80;;
69240;SDS011;56352;55.750;13.198;2023-08-12T04:40:46;2.08;;;0.90;;
69240;SDS011;56352;55.750;13.198;2023-08-12T04:43:13;1.08;;;0.90;;
69240;SDS011;56352;55.750;13.198;2023-08-12T04:45:40;1.00;;;0.85;;
69240;SDS011;56352;55.750;13.198;2023-08-12T04:48:07;1.83;;;0.93;;
69240;SDS011;56352;55.750;13.198;2023-08-12T04:50:37;1.33;;;0.98;;
69240;SDS011;56352;55.750;13.198;2023-08-12T04:53:05;1.48;;;0.80;;
69240;SDS011;56352;55.750;13.198;2023-08-12T04:55:40;1.73;;;0.80;;
69240;SDS011;56352;55.750;13.198;2023-08-12T04:58:06;1.00;;;0.80;;
69240;SDS011;56352;55.750;13.198;2023-08-12T05:00:36;1.70;;;1.00;;
69240;SDS011;56352;55.750;13.198;2023-08-12T05:03:03;2.92;;;0.98;;
69240;SDS011;56352;55.750;13.198;2023-08-12T05:05:33;2.40;;;0.82;;
69240;SDS011;56352;55.750;13.198;2023-08-12T05:08:00;1.33;;;1.00;;
69240;SDS011;56352;55.750;13.198;2023-08-12T05:10:27;2.83;;;1.20;;
69240;SDS011;56352;55.750;13.198;2023-08-12T05:12:57;0.95;;;0.82;;
69240;SDS011;56352;55.750;13.198;2023-08-12T05:15:25;1.92;;;0.80;;
69240;SDS011;56352;55.750;13.198;2023-08-12T05:17:52;2.15;;;0.90;;
69240;SDS011;56352;55.750;13.198;2023-08-12T05:20:19;2.30;;;1.10;;
69240;SDS011;56352;55.750;13.198;2023-08-12T05:22:46;1.83;;;0.77;;
69240;SDS011;56352;55.750;13.198;2023-08-12T05:25:12;2.63;;;1.02;;
69240;SDS011;56352;55.750;13.198;2023-08-12T05:27:39;1.00;;;0.85;;
69240;SDS011;56352;55.750;13.198;2023-08-12T05:30:06;4.25;;;1.20;;
69240;SDS011;56352;55.750;13.198;2023-08-12T05:32:33;2.53;;;0.95;;
69240;SDS011;56352;55.750;13.198;2023-08-12T05:35:00;1.42;;;0.93;;
69240;SDS011;56352;55.750;13.198;2023-08-12T05:37:26;1.10;;;0.70;;
69240;SDS011;56352;55.750;13.198;2023-08-12T05:39:53;2.08;;;1.10;;
69240;SDS011;56352;55.750;13.198;2023-08-12T05:42:20;1.08;;;0.75;;
69240;SDS011;56352;55.750;13.198;2023-08-12T05:44:47;2.55;;;1.00;;
69240;SDS011;56352;55.750;13.198;2023-08-12T05:47:15;1.73;;;1.10;;
69240;SDS011;56352;55.750;13.198;2023-08-12T05:49:42;2.42;;;0.93;;
69240;SDS011;56352;55.750;13.198;2023-08-12T05:52:14;1.75;;;1.20;;
69240;SDS011;56352;55.750;13.198;2023-08-12T05:54:41;1.50;;;1.00;;
69240;SDS011;56352;55.750;13.198;2023-08-12T05:57:08;4.38;;;1.00;;
69240;SDS011;56352;55.750;13.198;2023-08-12T05:59:35;1.70;;;1.20;;
69240;SDS011;56352;55.750;13.198;2023-08-12T06:02:02;1.70;;;1.30;;
69240;SDS011;56352;55.750;13.198;2023-08-12T06:04:29;3.00;;;1.17;;
69240;SDS011;56352;55.750;13.198;2023-08-12T06:06:57;1.40;;;1.05;;
69240;SDS011;56352;55.750;13.198;2023-08-12T06:11:53;1.60;;;0.90;;
69240;SDS011;56352;55.750;13.198;2023-08-12T06:14:22;2.17;;;0.95;;
69240;SDS011;56352;55.750;13.198;2023-08-12T06:16:49;3.72;;;1.58;;
69240;SDS011;56352;55.750;13.198;2023-08-12T06:21:53;1.83;;;0.90;;
69240;SDS011;56352;55.750;13.198;2023-08-12T06:24:26;2.05;;;0.98;;
69240;SDS011;56352;55.750;13.198;2023-08-12T06:26:56;1.10;;;0.90;;
69240;SDS011;56352;55.750;13.198;2023-08-12T06:29:23;2.00;;;1.10;;
69240;SDS011;56352;55.750;13.198;2023-08-12T06:31:50;2.17;;;0.93;;
69240;SDS011;56352;55.750;13.198;2023-08-12T06:34:19;5.47;;;1.00;;
69240;SDS011;56352;55.750;13.198;2023-08-12T06:36:46;1.27;;;0.98;;
69240;SDS011;56352;55.750;13.198;2023-08-12T06:39:12;2.25;;;1.00;;
69240;SDS011;56352;55.750;13.198;2023-08-12T06:41:40;5.82;;;1.10;;
69240;SDS011;56352;55.750;13.198;2023-08-12T06:44:13;1.17;;;0.80;;
69240;SDS011;56352;55.750;13.198;2023-08-12T06:46:40;1.45;;;0.80;;
69240;SDS011;56352;55.750;13.198;2023-08-12T06:49:08;3.17;;;0.90;;
69240;SDS011;56352;55.750;13.198;2023-08-12T06:51:34;2.63;;;1.15;;
69240;SDS011;56352;55.750;13.198;2023-08-12T06:54:01;2.53;;;1.00;;
69240;SDS011;56352;55.750;13.198;2023-08-12T06:56:30;1.08;;;0.80;;
69240;SDS011;56352;55.750;13.198;2023-08-12T06:58:57;2.28;;;1.00;;
69240;SDS011;56352;55.750;13.198;2023-08-12T07:01:24;1.65;;;1.05;;
69240;SDS011;56352;55.750;13.198;2023-08-12T07:03:57;1.35;;;1.10;;
69240;SDS011;56352;55.750;13.198;2023-08-12T07:06:26;1.50;;;0.98;;
69240;SDS011;56352;55.750;13.198;2023-08-12T07:08:53;1.50;;;1.00;;
69240;SDS011;56352;55.750;13.198;2023-08-12T07:11:28;4.05;;;0.90;;
69240;SDS011;56352;55.750;13.198;2023-08-12T07:14:06;1.30;;;1.00;;
69240;SDS011;56352;55.750;13.198;2023-08-12T07:16:36;1.60;;;0.77;;
69240;SDS011;56352;55.750;13.198;2023-08-12T07:19:07;1.92;;;0.93;;
69240;SDS011;56352;55.750;13.198;2023-08-12T07:21:40;2.45;;;1.00;;
69240;SDS011;56352;55.750;13.198;2023-08-12T07:24:07;2.92;;;0.98;;
69240;SDS011;56352;55.750;13.198;2023-08-12T07:26:40;3.22;;;1.05;;
69240;SDS011;56352;55.750;13.198;2023-08-12T07:29:10;3.67;;;1.02;;
69240;SDS011;56352;55.750;13.198;2023-08-12T07:31:38;5.47;;;1.30;;
69240;SDS011;56352;55.750;13.198;2023-08-12T07:34:06;6.22;;;1.42;;
69240;SDS011;56352;55.750;13.198;2023-08-12T07:36:32;2.45;;;1.35;;
69240;SDS011;56352;55.750;13.198;2023-08-12T07:38:59;5.18;;;1.15;;
69240;SDS011;56352;55.750;13.198;2023-08-12T07:41:26;1.95;;;0.93;;
69240;SDS011;56352;55.750;13.198;2023-08-12T07:43:54;1.83;;;0.90;;
69240;SDS011;56352;55.750;13.198;2023-08-12T07:46:29;3.05;;;1.30;;
69240;SDS011;56352;55.750;13.198;2023-08-12T07:48:56;3.83;;;1.23;;
69240;SDS011;56352;55.750;13.198;2023-08-12T07:51:23;2.88;;;1.23;;
69240;SDS011;56352;55.750;13.198;2023-08-12T07:54:04;1.40;;;0.98;;
69240;SDS011;56352;55.750;13.198;2023-08-12T07:56:31;1.38;;;1.10;;
69240;SDS011;56352;55.750;13.198;2023-08-12T08:01:31;3.75;;;1.17;;
69240;SDS011;56352;55.750;13.198;2023-08-12T08:04:04;1.88;;;1.10;;
69240;SDS011;56352;55.750;13.198;2023-08-12T08:06:35;1.50;;;1.10;;
69240;SDS011;56352;55.750;13.198;2023-08-12T08:09:05;1.50;;;1.08;;
69240;SDS011;56352;55.750;13.198;2023-08-12T08:11:31;3.53;;;1.33;;
69240;SDS011;56352;55.750;13.198;2023-08-12T08:13:58;1.70;;;1.02;;
69240;SDS011;56352;55.750;13.198;2023-08-12T08:16:25;1.33;;;1.23;;
69240;SDS011;56352;55.750;13.198;2023-08-12T08:18:52;1.88;;;1.08;;
69240;SDS011;56352;55.750;13.198;2023-08-12T08:21:19;3.58;;;1.27;;
69240;SDS011;56352;55.750;13.198;2023-08-12T08:23:46;2.20;;;1.20;;
69240;SDS011;56352;55.750;13.198;2023-08-12T08:26:13;3.03;;;1.30;;
69240;SDS011;56352;55.750;13.198;2023-08-12T08:28:41;3.85;;;1.23;;
69240;SDS011;56352;55.750;13.198;2023-08-12T08:31:11;2.38;;;1.40;;
69240;SDS011;56352;55.750;13.198;2023-08-12T08:33:40;3.33;;;1.30;;
69240;SDS011;56352;55.750;13.198;2023-08-12T08:36:10;4.25;;;1.63;;
69240;SDS011;56352;55.750;13.198;2023-08-12T08:38:37;2.38;;;1.35;;
69240;SDS011;56352;55.750;13.198;2023-08-12T08:41:04;4.72;;;1.35;;
69240;SDS011;56352;55.750;13.198;2023-08-12T08:43:32;1.38;;;1.10;;
69240;SDS011;56352;55.750;13.198;2023-08-12T08:46:01;2.72;;;1.27;;
69240;SDS011;56352;55.750;13.198;2023-08-12T08:48:28;5.07;;;1.30;;
69240;SDS011;56352;55.750;13.198;2023-08-12T08:50:54;4.68;;;1.15;;
69240;SDS011;56352;55.750;13.198;2023-08-12T08:53:22;3.05;;;1.50;;
69240;SDS011;56352;55.750;13.198;2023-08-12T08:55:48;3.10;;;1.40;;
69240;SDS011;56352;55.750;13.198;2023-08-12T08:58:15;4.25;;;1.20;;
69240;SDS011;56352;55.750;13.198;2023-08-12T09:00:48;2.75;;;1.30;;
69240;SDS011;56352;55.750;13.198;2023-08-12T09:03:14;2.40;;;1.30;;
69240;SDS011;56352;55.750;13.198;2023-08-12T09:05:41;1.58;;;1.10;;
69240;SDS011;56352;55.750;13.198;2023-08-12T09:08:09;4.75;;;1.92;;
69240;SDS011;56352;55.750;13.198;2023-08-12T09:10:38;4.68;;;1.55;;
69240;SDS011;56352;55.750;13.198;2023-08-12T09:13:09;2.03;;;1.13;;
69240;SDS011;56352;55.750;13.198;2023-08-12T09:15:36;4.90;;;1.10;;
69240;SDS011;56352;55.750;13.198;2023-08-12T09:18:06;3.10;;;1.50;;
69240;SDS011;56352;55.750;13.198;2023-08-12T09:20:35;3.25;;;1.40;;
69240;SDS011;56352;55.750;13.198;2023-08-12T09:23:02;3.40;;;1.40;;
69240;SDS011;56352;55.750;13.198;2023-08-12T09:25:29;3.83;;;1.77;;
69240;SDS011;56352;55.750;13.198;2023-08-12T09:27:59;3.75;;;1.75;;
69240;SDS011;56352;55.750;13.198;2023-08-12T09:30:29;2.92;;;1.52;;
69240;SDS011;56352;55.750;13.198;2023-08-12T09:32:58;4.18;;;1.88;;
69240;SDS011;56352;55.750;13.198;2023-08-12T09:35:37;5.25;;;2.10;;
69240;SDS011;56352;55.750;13.198;2023-08-12T09:38:11;10.02;;;1.88;;
69240;SDS011;56352;55.750;13.198;2023-08-12T09:40:43;5.72;;;1.80;;
69240;SDS011;56352;55.750;13.198;2023-08-12T09:43:24;3.92;;;1.50;;
69240;SDS011;56352;55.750;13.198;2023-08-12T09:45:55;7.65;;;1.73;;
69240;SDS011;56352;55.750;13.198;2023-08-12T09:48:24;4.53;;;1.60;;
69240;SDS011;56352;55.750;13.198;2023-08-12T09:50:53;10.00;;;2.20;;
69240;SDS011;56352;55.750;13.198;2023-08-12T09:53:22;10.77;;;2.00;;
69240;SDS011;56352;55.750;13.198;2023-08-12T09:58:16;8.60;;;2.22;;
69240;SDS011;56352;55.750;13.198;2023-08-12T10:00:47;10.60;;;2.15;;
69240;SDS011;56352;55.750;13.198;2023-08-12T10:03:16;7.45;;;1.90;;
69240;SDS011;56352;55.750;13.198;2023-08-12T10:05:44;4.65;;;1.77;;
69240;SDS011;56352;55.750;13.198;2023-08-12T10:08:11;5.68;;;1.80;;
69240;SDS011;56352;55.750;13.198;2023-08-12T10:10:39;12.77;;;2.60;;
69240;SDS011;56352;55.750;13.198;2023-08-12T10:13:06;10.07;;;2.25;;
69240;SDS011;56352;55.750;13.198;2023-08-12T10:15:34;4.10;;;1.43;;
69240;SDS011;56352;55.750;13.198;2023-08-12T10:18:07;3.50;;;1.40;;
69240;SDS011;56352;55.750;13.198;2023-08-12T10:20:37;2.70;;;1.35;;
69240;SDS011;56352;55.750;13.198;2023-08-12T10:23:05;4.70;;;1.42;;
69240;SDS011;56352;55.750;13.198;2023-08-12T10:25:33;6.22;;;1.38;;
69240;SDS011;56352;55.750;13.198;2023-08-12T10:28:00;3.45;;;1.40;;
69240;SDS011;56352;55.750;13.198;2023-08-12T10:30:28;4.25;;;1.50;;
69240;SDS011;56352;55.750;13.198;2023-08-12T10:32:55;2.55;;;1.90;;
69240;SDS011;56352;55.750;13.198;2023-08-12T10:35:23;2.72;;;1.60;;
69240;SDS011;56352;55.750;13.198;2023-08-12T10:37:50;5.00;;;2.00;;
69240;SDS011;56352;55.750;13.198;2023-08-12T10:40:20;2.50;;;1.75;;
69240;SDS011;56352;55.750;13.198;2023-08-12T10:42:49;4.53;;;1.65;;
69240;SDS011;56352;55.750;13.198;2023-08-12T10:45:17;4.83;;;1.63;;
69240;SDS011;56352;55.750;13.198;2023-08-12T10:50:43;3.75;;;1.20;;
69240;SDS011;56352;55.750;13.198;2023-08-12T10:55:57;4.53;;;1.50;;
69240;SDS011;56352;55.750;13.198;2023-08-12T10:59:07;4.82;;;1.55;;
69240;SDS011;56352;55.750;13.198;2023-08-12T11:01:18;3.65;;;1.50;;
69240;SDS011;56352;55.750;13.198;2023-08-12T11:03:46;6.18;;;1.60;;
69240;SDS011;56352;55.750;13.198;2023-08-12T11:06:14;3.47;;;1.65;;
69240;SDS011;56352;55.750;13.198;2023-08-12T11:08:47;3.70;;;1.92;;
69240;SDS011;56352;55.750;13.198;2023-08-12T11:11:19;3.00;;;1.77;;
69240;SDS011;56352;55.750;13.198;2023-08-12T11:13:52;5.80;;;1.58;;
69240;SDS011;56352;55.750;13.198;2023-08-12T11:16:34;6.57;;;1.60;;
69240;SDS011;56352;55.750;13.198;2023-08-12T11:19:07;4.63;;;1.70;;
69240;SDS011;56352;55.750;13.198;2023-08-12T11:21:36;2.63;;;1.60;;
69240;SDS011;56352;55.750;13.198;2023-08-12T11:24:06;6.30;;;1.80;;
69240;SDS011;56352;55.750;13.198;2023-08-12T11:26:33;10.38;;;1.90;;
69240;SDS011;56352;55.750;13.198;2023-08-12T11:29:00;6.63;;;1.98;;
69240;SDS011;56352;55.750;13.198;2023-08-12T11:31:27;2.00;;;1.50;;
69240;SDS011;56352;55.750;13.198;2023-08-12T11:33:54;2.85;;;1.85;;
69240;SDS011;56352;55.750;13.198;2023-08-12T11:36:20;5.75;;;1.90;;
69240;SDS011;56352;55.750;13.198;2023-08-12T11:38:47;2.92;;;1.80;;
69240;SDS011;56352;55.750;13.198;2023-08-12T11:41:16;2.08;;;1.70;;
69240;SDS011;56352;55.750;13.198;2023-08-12T11:43:44;2.72;;;1.90;;
69240;SDS011;56352;55.750;13.198;2023-08-12T11:46:10;2.70;;;1.90;;
69240;SDS011;56352;55.750;13.198;2023-08-12T11:48:37;3.88;;;1.80;;
69240;SDS011;56352;55.750;13.198;2023-08-12T11:51:06;5.47;;;1.60;;
69240;SDS011;56352;55.750;13.198;2023-08-12T11:53:33;2.88;;;1.58;;
69240;SDS011;56352;55.750;13.198;2023-08-12T11:56:00;5.65;;;1.60;;
69240;SDS011;56352;55.750;13.198;2023-08-12T11:58:27;5.07;;;1.60;;
69240;SDS011;56352;55.750;13.198;2023-08-12T12:01:16;4.18;;;2.08;;
69240;SDS011;56352;55.750;13.198;2023-08-12T12:03:44;4.35;;;1.70;;
69240;SDS011;56352;55.750;13.198;2023-08-12T12:06:12;4.30;;;1.77;;
69240;SDS011;56352;55.750;13.198;2023-08-12T12:08:39;2.58;;;1.60;;
69240;SDS011;56352;55.750;13.198;2023-08-12T12:11:06;2.47;;;1.63;;
69240;SDS011;56352;55.750;13.198;2023-08-12T12:13:35;3.30;;;1.77;;
69240;SDS011;56352;55.750;13.198;2023-08-12T12:16:02;6.20;;;1.80;;
69240;SDS011;56352;55.750;13.198;2023-08-12T12:18:28;2.85;;;1.92;;
69240;SDS011;56352;55.750;13.198;2023-08-12T12:21:03;4.80;;;2.05;;
69240;SDS011;56352;55.750;13.198;2023-08-12T12:23:29;3.80;;;1.90;;
69240;SDS011;56352;55.750;13.198;2023-08-12T12:26:00;3.55;;;1.92;;
69240;SDS011;56352;55.750;13.198;2023-08-12T12:28:28;2.22;;;2.03;;
69240;SDS011;56352;55.750;13.198;2023-08-12T12:30:55;3.55;;;1.67;;
69240;SDS011;56352;55.750;13.198;2023-08-12T12:33:22;2.95;;;1.80;;
69240;SDS011;56352;55.750;13.198;2023-08-12T12:35:51;2.38;;;1.70;;
69240;SDS011;56352;55.750;13.198;2023-08-12T12:38:24;3.17;;;2.00;;
69240;SDS011;56352;55.750;13.198;2023-08-12T12:40:52;3.00;;;2.17;;
69240;SDS011;56352;55.750;13.198;2023-08-12T12:43:18;3.53;;;2.05;;
69240;SDS011;56352;55.750;13.198;2023-08-12T12:45:45;3.85;;;1.90;;
69240;SDS011;56352;55.750;13.198;2023-08-12T12:48:12;2.97;;;2.00;;
69240;SDS011;56352;55.750;13.198;2023-08-12T12:50:38;3.03;;;2.00;;
69240;SDS011;56352;55.750;13.198;2023-08-12T12:53:05;4.47;;;2.10;;
69240;SDS011;56352;55.750;13.198;2023-08-12T12:55:32;3.70;;;1.77;;
69240;SDS011;56352;55.750;13.198;2023-08-12T12:57:59;3.22;;;1.75;;
69240;SDS011;56352;55.750;13.198;2023-08-12T13:00:25;3.95;;;1.80;;
69240;SDS011;56352;55.750;13.198;2023-08-12T13:02:52;3.70;;;2.20;;
69240;SDS011;56352;55.750;13.198;2023-08-12T13:05:19;3.90;;;2.00;;
69240;SDS011;56352;55.750;13.198;2023-08-12T13:07:46;3.58;;;2.10;;
69240;SDS011;56352;55.750;13.198;2023-08-12T13:10:16;3.75;;;1.90;;
69240;SDS011;56352;55.750;13.198;2023-08-12T13:12:43;3.97;;;2.20;;
69240;SDS011;56352;55.750;13.198;2023-08-12T13:15:09;2.95;;;1.92;;
69240;SDS011;56352;55.750;13.198;2023-08-12T13:17:40;4.18;;;2.22;;
69240;SDS011;56352;55.750;13.198;2023-08-12T13:20:09;4.30;;;1.90;;
69240;SDS011;56352;55.750;13.198;2023-08-12T13:22:36;4.75;;;2.33;;
69240;SDS011;56352;55.750;13.198;2023-08-12T13:25:06;3.42;;;2.00;;
69240;SDS011;56352;55.750;13.198;2023-08-12T13:27:33;3.53;;;2.20;;
69240;SDS011;56352;55.750;13.198;2023-08-12T13:30:00;6.00;;;2.20;;
69240;SDS011;56352;55.750;13.198;2023-08-12T13:32:26;4.90;;;1.90;;
69240;SDS011;56352;55.750;13.198;2023-08-12T13:34:54;4.57;;;2.20;;
69240;SDS011;56352;55.750;13.198;2023-08-12T13:37:24;4.03;;;2.10;;
69240;SDS011;56352;55.750;13.198;2023-08-12T13:39:53;2.95;;;2.20;;
69240;SDS011;56352;55.750;13.198;2023-08-12T13:42:20;4.18;;;2.17;;
69240;SDS011;56352;55.750;13.198;2023-08-12T13:44:47;5.35;;;2.22;;
69240;SDS011;56352;55.750;13.198;2023-08-12T13:47:27;7.75;;;2.55;;
69240;SDS011;56352;55.750;13.198;2023-08-12T13:49:54;3.75;;;2.35;;
69240;SDS011;56352;55.750;13.198;2023-08-12T13:52:24;3.38;;;2.38;;
69240;SDS011;56352;55.750;13.198;2023-08-12T13:54:51;6.47;;;3.10;;
69240;SDS011;56352;55.750;13.198;2023-08-12T13:57:17;4.38;;;2.30;;
69240;SDS011;56352;55.750;13.198;2023-08-12T13:59:44;3.47;;;2.20;;
69240;SDS011;56352;55.750;13.198;2023-08-12T14:02:14;4.05;;;2.40;;
69240;SDS011;56352;55.750;13.198;2023-08-12T14:04:41;5.25;;;2.30;;
69240;SDS011;56352;55.750;13.198;2023-08-12T14:07:11;3.28;;;2.28;;
69240;SDS011;56352;55.750;13.198;2023-08-12T14:09:37;3.15;;;2.25;;
69240;SDS011;56352;55.750;13.198;2023-08-12T14:12:07;5.43;;;2.35;;
69240;SDS011;56352;55.750;13.198;2023-08-12T14:14:34;5.75;;;2.65;;
69240;SDS011;56352;55.750;13.198;2023-08-12T14:17:03;3.83;;;2.40;;
69240;SDS011;56352;55.750;13.198;2023-08-12T14:19:32;4.13;;;2.55;;
69240;SDS011;56352;55.750;13.198;2023-08-12T14:21:59;6.20;;;2.75;;
69240;SDS011;56352;55.750;13.198;2023-08-12T14:24:29;4.63;;;2.92;;
69240;SDS011;56352;55.750;13.198;2023-08-12T14:26:56;3.95;;;2.65;;
69240;SDS011;56352;55.750;13.198;2023-08-12T14:29:22;5.57;;;3.10;;
69240;SDS011;56352;55.750;13.198;2023-08-12T14:31:50;4.85;;;2.50;;
69240;SDS011;56352;55.750;13.198;2023-08-12T14:34:17;3.85;;;2.55;;
69240;SDS011;56352;55.750;13.198;2023-08-12T14:36:44;2.90;;;2.60;;
69240;SDS011;56352;55.750;13.198;2023-08-12T14:39:11;6.88;;;2.78;;
69240;SDS011;56352;55.750;13.198;2023-08-12T14:41:40;3.63;;;2.95;;
69240;SDS011;56352;55.750;13.198;2023-08-12T14:44:06;3.60;;;2.95;;
69240;SDS011;56352;55.750;13.198;2023-08-12T14:46:33;3.63;;;2.85;;
69240;SDS011;56352;55.750;13.198;2023-08-12T14:49:00;4.60;;;2.58;;
69240;SDS011;56352;55.750;13.198;2023-08-12T14:51:27;4.05;;;2.63;;
69240;SDS011;56352;55.750;13.198;2023-08-12T14:53:59;5.57;;;2.80;;
69240;SDS011;56352;55.750;13.198;2023-08-12T14:56:28;5.28;;;2.60;;
69240;SDS011;56352;55.750;13.198;2023-08-12T14:58:55;4.10;;;2.65;;
69240;SDS011;56352;55.750;13.198;2023-08-12T15:01:24;4.80;;;2.47;;